Time;durP1;ratioP1;P1;durP2;ratioP2;P2;SDS_P1;SDS_P2;PMS_P1;PMS_P2;Temp;Humidity;BMP_temperature;BMP_pressure;BME280_temperature;BME280_humidity;BME280_pressure;Samples;Min_cycle;Max_cycle;Signal;HPM_P1;HPM_P2
2021/06/19 00:01:23;;;;;;;;;;;;;;;;;;5074259;28;20473;-82
2021/06/19 00:03:51;;;;;;;;;;;;;;;;;;5066561;28;19924;-80
2021/06/19 00:06:20;;;;;;;;;;;;;;;;;;5067337;28;19928;-81
2021/06/19 00:08:50;;;;;;;;;;;;;;;;;;5062097;28;19932;-83
2021/06/19 00:11:19;;;;;;;;;;;;;;;;;;5077743;28;20826;-84
2021/06/19 00:13:47;;;;;;;;;;;;;;;;;;5069969;28;19939;-81
2021/06/19 00:16:16;;;;;;;;;;;;;;;;;;5077924;28;19939;-84
2021/06/19 00:18:44;;;;;;;;;;;;;;;;;;5083253;28;19929;-84
2021/06/19 00:21:13;;;;;;;;;;;;;;;;;;5064020;28;19932;-82
2021/06/19 00:23:41;;;;;;;;;;;;;;;;;;5072997;28;19924;-82
2021/06/19 00:26:11;;;;;;;;;;;;;;;;;;5070940;28;19932;-82
2021/06/19 00:28:40;;;;;;;;;;;;;;;;;;5082635;28;19931;-84
2021/06/19 00:31:08;;;;;;;;;;;;;;;;;;5064091;28;19929;-83
2021/06/19 00:33:37;;;;;;;;;;;;;;;;;;5062066;28;19925;-85
2021/06/19 00:36:05;;;;;;;;;;;;;;;;;;5062194;28;20294;-86
2021/06/19 00:38:34;;;;;;;;;;;;;;;;;;5064259;28;19924;-82
2021/06/19 00:41:02;;;;;;;;;;;;;;;;;;5085930;28;19925;-83
2021/06/19 00:43:32;;;;;;;;;;;;;;;;;;5085270;28;19928;-81
2021/06/19 00:46:01;;;;;;;;;;;;;;;;;;5085007;28;19921;-86
2021/06/19 00:48:29;;;;;;;;;;;;;;;;;;5090194;28;19919;-87
2021/06/19 00:50:58;;;;;;;;;;;;;;;;;;5083894;28;19926;-85
2021/06/19 00:53:26;;;;;;;;;;;;;;;;;;5068714;28;19931;-83
2021/06/19 00:55:55;;;;;;;;;;;;;;;;;;5062024;28;19931;-85
2021/06/19 00:58:23;;;;;;;;;;;;;;;;;;5067134;28;20306;-83
2021/06/19 01:00:53;;;;;;;;;;;;;;;;;;5068839;28;19929;-84
2021/06/19 01:03:22;;;;;;;;;;;;;;;;;;5068250;28;20360;-82
2021/06/19 01:05:51;;;;;;;;;;;;;;;;;;5058523;28;19935;-81
2021/06/19 01:08:19;;;;;;;;;;;;;;;;;;5087748;28;19932;-83
2021/06/19 01:10:48;;;;;;;;;;;;;;;;;;5075475;28;20279;-82
2021/06/19 01:13:16;;;;;;;;;;;;;;;;;;5082394;28;19931;-82
2021/06/19 01:15:44;;;;;;;;;;;;;;;;;;5085160;28;19928;-80
2021/06/19 01:18:14;;;;;;;;;;;;;;;;;;5067654;28;19991;-82
2021/06/19 01:20:43;;;;;;;;;;;;;;;;;;5072558;28;19928;-81
2021/06/19 01:23:11;;;;;;;;;;;;;;;;;;5080242;28;19925;-86
2021/06/19 01:25:42;;;;;;;;;;;;;;;;;;5063571;28;19925;-85
2021/06/19 01:28:12;;;;;;;;;;;;;;;;;;5069298;28;20026;-81
2021/06/19 01:30:41;;;;;;;;;;;;;;;;;;5081669;28;19939;-83
2021/06/19 01:33:09;;;;;;;;;;;;;;;;;;5084666;28;20033;-82
2021/06/19 01:35:38;;;;;;;;;;;;;;;;;;5059745;28;19932;-83
2021/06/19 01:38:07;;;;;;;;;;;;;;;;;;5068526;28;20410;-82
2021/06/19 01:40:36;;;;;;;;;;;;;;;;;;5077242;28;20377;-82
2021/06/19 01:43:06;;;;;;;;;;;;;;;;;;5069789;28;19932;-83
2021/06/19 01:45:35;;;;;;;;;;;;;;;;;;5061454;28;19925;-81
2021/06/19 01:48:04;;;;;;;;;;;;;;;;;;5069452;28;19975;-82
2021/06/19 01:50:33;;;;;;;;;;;;;;;;;;5060449;28;19931;-82
2021/06/19 01:53:02;;;;;;;;;;;;;;;;;;5084923;28;19928;-81
2021/06/19 01:55:30;;;;;;;;;;;;;;;;;;5081767;28;19924;-82
2021/06/19 01:58:00;;;;;;;;;;;;;;;;;;5069743;28;19924;-84
2021/06/19 02:00:30;;;;;;;;;;;;;;;;;;5084104;28;19924;-82
2021/06/19 02:02:59;;;;;;;;;;;;;;;;;;5091528;28;19924;-84
2021/06/19 02:05:27;;;;;;;;;;;;;;;;;;5072758;28;20601;-85
2021/06/19 02:07:56;;;;;;;;;;;;;;;;;;5080294;28;19924;-82
2021/06/19 02:10:26;;;;;;;;;;;;;;;;;;5072341;28;19935;-80
2021/06/19 02:12:55;;;;;;;;;;;;;;;;;;5070707;28;19932;-81
2021/06/19 02:15:24;;;;;;;;;;;;;;;;;;5082871;28;20155;-81
2021/06/19 02:17:55;;;;;;;;;;;;;;;;;;5070324;28;19939;-81
2021/06/19 02:20:24;;;;;;;;;;;;;;;;;;5079439;28;19939;-81
2021/06/19 02:22:52;;;;;;;;;;;;;;;;;;5090146;28;19936;-83
2021/06/19 02:25:22;;;;;;;;;;;;;;;;;;5074881;28;19924;-80
2021/06/19 02:27:51;;;;;;;;;;;;;;;;;;5082919;28;19931;-81
2021/06/19 02:30:21;;;;;;;;;;;;;;;;;;5078409;28;19943;-82
2021/06/19 02:32:49;;;;;;;;;;;;;;;;;;5074864;28;19924;-83
2021/06/19 02:35:19;;;;;;;;;;;;;;;;;;5090382;28;19924;-81
2021/06/19 02:37:47;;;;;;;;;;;;;;;;;;5085955;28;19936;-81
2021/06/19 02:40:16;;;;;;;;;;;;;;;;;;5070083;28;19929;-82
2021/06/19 02:42:45;;;;;;;;;;;;;;;;;;5075771;28;19935;-82
2021/06/19 02:45:14;;;;;;;;;;;;;;;;;;5081311;28;19943;-82
2021/06/19 02:47:46;;;;;;;;;;;;;;;;;;5083372;28;19932;-81
2021/06/19 02:50:16;;;;;;;;;;;;;;;;;;5080673;28;19931;-82
2021/06/19 02:52:46;;;;;;;;;;;;;;;;;;5069190;28;20177;-82
2021/06/19 02:55:15;;;;;;;;;;;;;;;;;;5076888;28;19924;-82
2021/06/19 02:57:44;;;;;;;;;;;;;;;;;;5072740;28;19931;-82
2021/06/19 03:00:16;;;;;;;;;;;;;;;;;;5067765;28;20381;-81
2021/06/19 03:02:46;;;;;;;;;;;;;;;;;;5069440;28;20293;-82
2021/06/19 03:05:17;;;;;;;;;;;;;;;;;;5079424;28;19931;-81
2021/06/19 03:07:47;;;;;;;;;;;;;;;;;;5068922;28;20267;-84
2021/06/19 03:10:20;;;;;;;;;;;;;;;;;;5063658;28;19951;-83
2021/06/19 03:13:11;;;;;;;;;;;;;;;;;;5056444;28;20382;-82
2021/06/19 03:15:41;;;;;;;;;;;;;;;;;;5072883;28;20398;-81
2021/06/19 03:18:13;;;;;;;;;;;;;;;;;;5066194;28;19928;-80
2021/06/19 03:20:42;;;;;;;;;;;;;;;;;;5073959;28;19924;-81
2021/06/19 03:23:13;;;;;;;;;;;;;;;;;;5070896;28;19924;-82
2021/06/19 03:25:43;;;;;;;;;;;;;;;;;;5080785;28;19924;-82
2021/06/19 03:28:12;;;;;;;;;;;;;;;;;;5071844;28;19924;-82
2021/06/19 03:30:42;;;;;;;;;;;;;;;;;;5068313;28;20030;-82
2021/06/19 03:33:16;;;;;;;;;;;;;;;;;;5079145;28;19924;-83
2021/06/19 03:35:47;;;;;;;;;;;;;;;;;;5071995;28;19928;-82
2021/06/19 03:38:20;;;;;;;;;;;;;;;;;;5084773;28;19932;-82
2021/06/19 03:41:13;;;;;;;;;;;;;;;;;;5064464;28;19929;-82
2021/06/19 03:43:42;;;;;;;;;;;;;;;;;;5067370;28;19920;-83
2021/06/19 03:46:19;;;;;;;;;;;;;;;;;;5110206;28;19908;-83
2021/06/19 03:49:25;;;;;;;;;;;;;;;;;;5087446;28;19932;-83
2021/06/19 03:53:01;;;;;;;;;;;;;;;;;;5112281;28;19912;-84
2021/06/19 03:55:47;;;;;;;;;;;;;;;;;;5076742;28;19935;-83
2021/06/19 03:58:17;;;;;;;;;;;;;;;;;;5088877;28;19928;-82
2021/06/19 04:00:46;;;;;;;;;;;;;;;;;;5088530;28;19943;-81
2021/06/19 04:03:14;;;;;;;;;;;;;;;;;;5076846;28;19924;-83
2021/06/19 04:05:43;;;;;;;;;;;;;;;;;;5082173;28;19923;-84
2021/06/19 04:08:11;;;;;;;;;;;;;;;;;;5072570;28;19924;-83
2021/06/19 04:10:40;;;;;;;;;;;;;;;;;;5080020;28;19928;-83
2021/06/19 04:13:10;;;;;;;;;;;;;;;;;;5071741;28;20298;-82
2021/06/19 04:15:39;;;;;;;;;;;;;;;;;;5069073;28;19931;-83
2021/06/19 04:18:07;;;;;;;;;;;;;;;;;;5083712;28;19924;-82
2021/06/19 04:20:36;;;;;;;;;;;;;;;;;;5068411;28;20309;-81
2021/06/19 04:23:04;;;;;;;;;;;;;;;;;;5080725;28;20273;-81
2021/06/19 04:25:33;;;;;;;;;;;;;;;;;;5084774;28;19924;-86
2021/06/19 04:28:01;;;;;;;;;;;;;;;;;;5068521;28;19931;-82
2021/06/19 04:30:34;;;;;;;;;;;;;;;;;;5079185;28;19928;-82
2021/06/19 04:33:03;;;;;;;;;;;;;;;;;;5078501;28;19924;-81
2021/06/19 04:35:32;;;;;;;;;;;;;;;;;;5081051;28;19932;-83
2021/06/19 04:38:00;;;;;;;;;;;;;;;;;;5069230;28;19925;-82
2021/06/19 04:40:34;;;;;;;;;;;;;;;;;;5065780;28;20547;-82
2021/06/19 04:43:04;;;;;;;;;;;;;;;;;;5094171;28;19924;-82
2021/06/19 04:45:35;;;;;;;;;;;;;;;;;;5086142;28;20260;-81
2021/06/19 04:48:04;;;;;;;;;;;;;;;;;;5090952;28;19924;-83
2021/06/19 04:50:33;;;;;;;;;;;;;;;;;;5086743;28;19924;-84
2021/06/19 04:53:02;;;;;;;;;;;;;;;;;;5076941;28;19932;-83
2021/06/19 04:55:31;;;;;;;;;;;;;;;;;;5095716;28;19935;-82
2021/06/19 04:58:02;;;;;;;;;;;;;;;;;;5090212;28;20304;-82
2021/06/19 05:00:32;;;;;;;;;;;;;;;;;;5078475;28;19909;-83
2021/06/19 05:03:02;;;;;;;;;;;;;;;;;;5103820;28;19918;-83
2021/06/19 05:05:31;;;;;;;;;;;;;;;;;;5094172;28;19912;-82
2021/06/19 05:07:59;;;;;;;;;;;;;;;;;;5093258;28;20294;-82
2021/06/19 05:10:27;;;;;;;;;;;;;;;;;;5089864;28;19927;-82
2021/06/19 05:12:56;;;;;;;;;;;;;;;;;;5070383;28;20402;-82
2021/06/19 05:15:27;;;;;;;;;;;;;;;;;;5068189;28;20140;-82
2021/06/19 05:17:56;;;;;;;;;;;;;;;;;;5078747;28;19931;-82
2021/06/19 05:20:27;;;;;;;;;;;;;;;;;;5070848;28;19931;-82
2021/06/19 05:22:55;;;;;;;;;;;;;;;;;;5071244;28;19924;-82
2021/06/19 05:25:24;;;;;;;;;;;;;;;;;;5094399;28;19924;-82
2021/06/19 05:27:52;;;;;;;;;;;;;;;;;;5070432;28;19931;-82
2021/06/19 05:30:20;;;;;;;;;;;;;;;;;;5078815;28;19932;-82
2021/06/19 05:32:49;;;;;;;;;;;;;;;;;;5068710;28;19932;-82
2021/06/19 05:35:17;;;;;;;;;;;;;;;;;;5084735;28;19932;-82
2021/06/19 05:37:47;;;;;;;;;;;;;;;;;;5062721;28;19932;-83
2021/06/19 05:40:15;;;;;;;;;;;;;;;;;;5077422;28;20450;-82
2021/06/19 05:42:44;;;;;;;;;;;;;;;;;;5072929;28;19935;-82
2021/06/19 05:45:13;;;;;;;;;;;;;;;;;;5069366;28;19924;-82
2021/06/19 05:47:41;;;;;;;;;;;;;;;;;;5074116;28;19925;-82
2021/06/19 05:50:10;;;;;;;;;;;;;;;;;;5076087;28;19936;-83
2021/06/19 05:52:39;;;;;;;;;;;;;;;;;;5062726;28;19952;-82
2021/06/19 05:55:09;;;;;;;;;;;;;;;;;;5084929;28;19924;-83
2021/06/19 05:57:38;;;;;;;;;;;;;;;;;;5088639;28;19942;-83
2021/06/19 06:00:07;;;;;;;;;;;;;;;;;;5073402;28;19928;-83
2021/06/19 06:02:42;;;;;;;;;;;;;;;;;;5077216;28;19925;-83
2021/06/19 06:05:11;;;;;;;;;;;;;;;;;;5072036;28;19928;-83
2021/06/19 06:07:39;;;;;;;;;;;;;;;;;;5075145;28;20309;-82
2021/06/19 06:10:10;;;;;;;;;;;;;;;;;;5075221;28;19929;-83
2021/06/19 06:12:38;;;;;;;;;;;;;;;;;;5080747;28;19928;-83
2021/06/19 06:15:08;;;;;;;;;;;;;;;;;;5075189;28;20314;-83
2021/06/19 06:17:37;;;;;;;;;;;;;;;;;;5086386;28;20281;-83
2021/06/19 06:20:06;;;;;;;;;;;;;;;;;;5070333;28;19924;-83
2021/06/19 06:22:34;;;;;;;;;;;;;;;;;;5072482;28;19995;-82
2021/06/19 06:25:03;;;;;;;;;;;;;;;;;;5069768;28;19924;-83
2021/06/19 06:27:33;;;;;;;;;;;;;;;;;;5085987;28;19950;-83
2021/06/19 06:30:01;;;;;;;;;;;;;;;;;;5066755;28;19925;-83
2021/06/19 06:36:30;;;;;;;;;;;;;;;;;;5072148;28;19925;-84
2021/06/19 06:39:03;;;;;;;;;;;;;;;;;;5088489;28;19933;-84
2021/06/19 06:41:33;;;;;;;;;;;;;;;;;;5085585;28;20481;-85
2021/06/19 06:44:30;;;;;;;;;;;;;;;;;;;;;
2021/06/19 06:51:32;;;;;;;;;;;;;;;;;;;;;
2021/06/19 06:55:29;;;;;;;;;;;;;;;;;;5081921;28;19955;-85
2021/06/19 06:58:03;;;;;;;;;;;;;;;;;;5079401;28;19929;-85
2021/06/19 07:00:43;;;;;;;;;;;;;;;;;;5072127;28;20378;-83
2021/06/19 07:03:17;;;;;;;;;;;;;;;;;;5072239;28;20857;-85
2021/06/19 07:05:45;;;;;;;;;;;;;;;;;;5085336;28;19935;-84
2021/06/19 07:08:14;;;;;;;;;;;;;;;;;;5093229;28;19924;-83
2021/06/19 07:10:42;;;;;;;;;;;;;;;;;;5094722;28;19939;-83
2021/06/19 07:13:11;;;;;;;;;;;;;;;;;;5069971;28;19924;-83
2021/06/19 07:15:42;;;;;;;;;;;;;;;;;;5078647;28;19935;-83
2021/06/19 07:18:16;;;;;;;;;;;;;;;;;;5096188;28;19931;-83
2021/06/19 07:20:44;;;;;;;;;;;;;;;;;;5081478;28;20530;-83
2021/06/19 07:23:13;;;;;;;;;;;;;;;;;;5069919;28;19931;-83
2021/06/19 07:25:41;;;;;;;;;;;;;;;;;;5071066;28;20374;-83
2021/06/19 07:28:09;;;;;;;;;;;;;;;;;;5079883;28;19929;-82
2021/06/19 07:30:38;;;;;;;;;;;;;;;;;;5072614;28;19925;-82
2021/06/19 07:33:08;;;;;;;;;;;;;;;;;;5076187;28;19928;-83
2021/06/19 07:35:36;;;;;;;;;;;;;;;;;;5066779;28;19924;-82
2021/06/19 07:38:05;;;;;;;;;;;;;;;;;;5081789;28;20036;-82
2021/06/19 07:40:33;;;;;;;;;;;;;;;;;;5066842;28;20389;-83
2021/06/19 07:43:02;;;;;;;;;;;;;;;;;;5065361;28;19924;-83
2021/06/19 07:45:30;;;;;;;;;;;;;;;;;;5086701;28;19928;-84
2021/06/19 07:47:59;;;;;;;;;;;;;;;;;;5069479;28;19932;-83
2021/06/19 07:58:40;;;;;;;;;;;;;;;;;;5018301;28;19924;-88
2021/06/19 08:13:31;;;;;;;;;;;;;;;;;;5057515;28;19925;-89
2021/06/19 08:16:05;;;;;;;;;;;;;;;;;;5078677;28;20386;-87
2021/06/19 08:18:37;;;;;;;;;;;;;;;;;;5069440;28;19928;-87
2021/06/19 08:21:12;;;;;;;;;;;;;;;;;;5064967;28;19931;-87
2021/06/19 08:23:43;;;;;;;;;;;;;;;;;;5063307;28;19931;-88
2021/06/19 08:26:12;;;;;;;;;;;;;;;;;;5070377;28;20313;-88
2021/06/19 08:28:40;;;;;;;;;;;;;;;;;;5067838;28;20015;-87
2021/06/19 08:31:10;;;;;;;;;;;;;;;;;;5076677;28;19939;-87
2021/06/19 08:33:39;;;;;;;;;;;;;;;;;;5071336;28;19928;-87
2021/06/19 08:36:08;;;;;;;;;;;;;;;;;;5073641;28;20315;-87
2021/06/19 08:38:36;;;;;;;;;;;;;;;;;;5070204;28;19927;-87
2021/06/19 08:41:06;;;;;;;;;;;;;;;;;;5066761;28;19924;-87
2021/06/19 08:43:38;;;;;;;;;;;;;;;;;;5068081;28;19932;-86
2021/06/19 08:46:07;;;;;;;;;;;;;;;;;;5076556;28;19924;-87
2021/06/19 08:48:38;;;;;;;;;;;;;;;;;;5091000;28;19938;-87
2021/06/19 08:51:07;;;;;;;;;;;;;;;;;;5077413;28;19938;-88
2021/06/19 08:53:36;;;;;;;;;;;;;;;;;;5014217;28;20414;-87
2021/06/19 08:56:13;;;;;;;;;;;;;;;;;;5072046;28;19931;-87
2021/06/19 08:58:42;;;;;;;;;;;;;;;;;;5056749;28;19936;-87
2021/06/19 09:01:11;;;;;;;;;;;;;;;;;;5059287;28;19947;-87
2021/06/19 09:03:40;;;;;;;;;;;;;;;;;;5056845;28;19928;-87
2021/06/19 09:06:16;;;;;;;;;;;;;;;;;;5060598;28;20374;-88
2021/06/19 09:08:58;;;;;;;;;;;;;;;;;;5076767;28;19982;-87
2021/06/19 09:11:30;;;;;;;;;;;;;;;;;;5071549;28;19925;-86
2021/06/19 09:14:00;;;;;;;;;;;;;;;;;;5062702;28;19928;-86
2021/06/19 09:16:28;;;;;;;;;;;;;;;;;;5091695;28;19926;-89
2021/06/19 09:18:58;;;;;;;;;;;;;;;;;;5083975;28;19912;-89
2021/06/19 09:21:30;;;;;;;;;;;;;;;;;;5090097;28;19918;-88
2021/06/19 09:23:58;;;;;;;;;;;;;;;;;;5059580;28;19924;-86
2021/06/19 09:26:28;;;;;;;;;;;;;;;;;;5073553;28;19939;-87
2021/06/19 09:29:11;;;;;;;;;;;;;;;;;;5089473;28;19932;-86
2021/06/19 09:31:44;;;;;;;;;;;;;;;;;;5058959;28;20293;-86
2021/06/19 09:34:15;;;;;;;;;;;;;;;;;;5060958;28;19924;-85
2021/06/19 09:36:49;;;;;;;;;;;;;;;;;;5067245;28;20286;-85
2021/06/19 09:39:18;;;;;;;;;;;;;;;;;;5060591;28;19947;-85
2021/06/19 09:41:47;;;;;;;;;;;;;;;;;;5087085;28;20480;-85
2021/06/19 09:44:15;;;;;;;;;;;;;;;;;;5077818;28;19931;-86
2021/06/19 09:46:56;;;;;;;;;;;;;;;;;;5049751;28;19940;-87
2021/06/19 09:49:29;;;;;;;;;;;;;;;;;;5053668;28;19939;-85
2021/06/19 09:51:58;;;;;;;;;;;;;;;;;;5053727;28;19931;-85
2021/06/19 09:54:26;;;;;;;;;;;;;;;;;;5073566;28;19924;-86
2021/06/19 09:56:55;;;;;;;;;;;;;;;;;;5047283;28;19928;-85
2021/06/19 09:59:28;;;;;;;;;;;;;;;;;;5058764;28;20069;-86
2021/06/19 10:01:56;;;;;;;;;;;;;;;;;;5074986;28;19912;-87
2021/06/19 10:04:26;;;;;;;;;;;;;;;;;;5079618;28;19921;-86
2021/06/19 10:06:55;;;;;;;;;;;;;;;;;;5097598;28;19942;-86
2021/06/19 10:09:23;;;;;;;;;;;;;;;;;;5079688;28;19912;-88
2021/06/19 10:11:53;;;;;;;;;;;;;;;;;;5087695;28;19935;-86
2021/06/19 10:14:23;;;;;;;;;;;;;;;;;;5058036;28;20309;-86
2021/06/19 10:16:52;;;;;;;;;;;;;;;;;;5081322;28;19924;-85
2021/06/19 10:19:24;;;;;;;;;;;;;;;;;;5068363;28;19931;-85
2021/06/19 10:21:54;;;;;;;;;;;;;;;;;;5080513;28;19924;-84
2021/06/19 10:24:23;;;;;;;;;;;;;;;;;;5080209;28;19928;-85
2021/06/19 10:26:52;;;;;;;;;;;;;;;;;;5056199;28;20321;-85
2021/06/19 10:29:20;;;;;;;;;;;;;;;;;;5058099;28;19931;-84
2021/06/19 10:31:50;;;;;;;;;;;;;;;;;;5073566;28;19951;-85
2021/06/19 10:34:23;;;;;;;;;;;;;;;;;;5078935;28;20047;-84
2021/06/19 10:36:52;;;;;;;;;;;;;;;;;;5073918;28;19924;-85
2021/06/19 10:39:35;;;;;;;;;;;;;;;;;;5058131;28;19931;-85
2021/06/19 10:42:04;;;;;;;;;;;;;;;;;;5056968;28;20282;-84
2021/06/19 10:44:52;;;;;;;;;;;;;;;;;;5065488;28;19935;-85
2021/06/19 10:47:21;;;;;;;;;;;;;;;;;;5081579;28;19924;-84
2021/06/19 10:49:49;;;;;;;;;;;;;;;;;;5061589;28;19924;-85
2021/06/19 10:52:21;;;;;;;;;;;;;;;;;;5098372;28;19928;-85
2021/06/19 10:55:09;;;;;;;;;;;;;;;;;;5060975;28;19924;-85
2021/06/19 10:57:45;;;;;;;;;;;;;;;;;;5093959;28;19939;-84
2021/06/19 11:00:24;;;;;;;;;;;;;;;;;;5079185;28;20404;-84
2021/06/19 11:02:53;;;;;;;;;;;;;;;;;;5072137;28;19925;-84
2021/06/19 11:05:48;;;;;;;;;;;;;;;;;;5064009;28;19924;-84
2021/06/19 11:08:17;;;;;;;;;;;;;;;;;;5020695;28;19928;-84
2021/06/19 11:10:52;;;;;;;;;;;;;;;;;;5061435;28;19935;-84
2021/06/19 11:13:39;;;;;;;;;;;;;;;;;;5058888;28;19924;-84
2021/06/19 11:16:40;;;;;;;;;;;;;;;;;;5055772;28;20386;-84
2021/06/19 11:19:08;;;;;;;;;;;;;;;;;;5073976;28;19928;-84
2021/06/19 11:21:38;;;;;;;;;;;;;;;;;;5071995;28;19954;-84
2021/06/19 11:24:10;;;;;;;;;;;;;;;;;;5051170;28;19924;-83
2021/06/19 11:26:45;;;;;;;;;;;;;;;;;;5069710;28;19931;-84
2021/06/19 11:29:31;;;;;;;;;;;;;;;;;;5074625;28;19924;-83
2021/06/19 11:32:01;;;;;;;;;;;;;;;;;;5050096;28;20286;-83
2021/06/19 11:34:42;;;;;;;;;;;;;;;;;;5075783;28;19928;-83
2021/06/19 11:37:10;;;;;;;;;;;;;;;;;;5067338;28;20259;-84
2021/06/19 11:39:39;;;;;;;;;;;;;;;;;;5075415;28;19931;-84
2021/06/19 11:42:07;;;;;;;;;;;;;;;;;;5053888;28;19928;-83
2021/06/19 11:44:39;;;;;;;;;;;;;;;;;;5052184;28;19931;-82
2021/06/19 11:47:09;;;;;;;;;;;;;;;;;;5079230;28;20404;-83
2021/06/19 11:49:41;;;;;;;;;;;;;;;;;;5086005;28;19936;-83
2021/06/19 11:52:11;;;;;;;;;;;;;;;;;;5068816;28;20373;-83
2021/06/19 11:54:43;;;;;;;;;;;;;;;;;;5064358;28;19924;-84
2021/06/19 11:57:12;;;;;;;;;;;;;;;;;;5053943;28;19932;-83
2021/06/19 11:59:41;;;;;;;;;;;;;;;;;;5050611;28;19947;-83
2021/06/19 12:02:14;;;;;;;;;;;;;;;;;;5051399;28;19925;-84
2021/06/19 12:04:42;;;;;;;;;;;;;;;;;;5071399;28;19925;-83
2021/06/19 12:07:11;;;;;;;;;;;;;;;;;;5054464;28;19924;-83
2021/06/19 12:09:39;;;;;;;;;;;;;;;;;;5063074;28;20298;-83
2021/06/19 12:12:09;;;;;;;;;;;;;;;;;;5061258;28;19928;-82
2021/06/19 12:14:39;;;;;;;;;;;;;;;;;;5055826;28;19932;-85
2021/06/19 12:17:08;;;;;;;;;;;;;;;;;;5075668;28;20300;-83
2021/06/19 12:19:39;;;;;;;;;;;;;;;;;;5052547;28;19924;-83
2021/06/19 12:22:08;;;;;;;;;;;;;;;;;;5043455;28;19931;-83
2021/06/19 12:24:38;;;;;;;;;;;;;;;;;;5083732;28;19924;-83
2021/06/19 12:27:08;;;;;;;;;;;;;;;;;;5050140;28;20390;-84
2021/06/19 12:29:38;;;;;;;;;;;;;;;;;;5048534;28;20405;-83
2021/06/19 12:32:20;;;;;;;;;;;;;;;;;;5052137;28;20157;-84
2021/06/19 12:34:50;;;;;;;;;;;;;;;;;;5067274;28;19928;-84
2021/06/19 12:37:21;;;;;;;;;;;;;;;;;;5050671;28;21065;-84
2021/06/19 12:39:49;;;;;;;;;;;;;;;;;;5057026;28;19929;-82
2021/06/19 12:42:34;;;;;;;;;;;;;;;;;;5069051;28;19932;-82
2021/06/19 12:45:10;;;;;;;;;;;;;;;;;;5055395;28;19924;-84
2021/06/19 12:47:40;;;;;;;;;;;;;;;;;;5053388;28;19928;-82
2021/06/19 12:50:10;;;;;;;;;;;;;;;;;;5040139;28;19936;-83
2021/06/19 12:52:55;;;;;;;;;;;;;;;;;;5061211;28;19924;-83
2021/06/19 12:55:23;;;;;;;;;;;;;;;;;;5063266;28;20390;-83
2021/06/19 12:58:08;;;;;;;;;;;;;;;;;;5051321;28;20298;-82
2021/06/19 13:00:37;;;;;;;;;;;;;;;;;;5063947;28;19928;-82
2021/06/19 13:03:06;;;;;;;;;;;;;;;;;;5065698;28;19935;-82
2021/06/19 13:05:41;;;;;;;;;;;;;;;;;;5063383;28;19924;-82
2021/06/19 13:08:09;;;;;;;;;;;;;;;;;;5062946;28;19935;-82
2021/06/19 13:10:38;;;;;;;;;;;;;;;;;;5052115;28;20184;-83
2021/06/19 13:13:06;;;;;;;;;;;;;;;;;;5055148;28;19928;-83
2021/06/19 13:15:34;;;;;;;;;;;;;;;;;;5058911;28;19925;-82
2021/06/19 13:18:13;;;;;;;;;;;;;;;;;;5092772;28;19935;-82
2021/06/19 13:20:42;;;;;;;;;;;;;;;;;;5073750;28;19931;-84
2021/06/19 13:23:11;;;;;;;;;;;;;;;;;;5047767;28;19924;-82
2021/06/19 13:26:00;;;;;;;;;;;;;;;;;;5072175;28;20378;-82
2021/06/19 13:29:02;;;;;;;;;;;;;;;;;;5052816;28;19935;-83
2021/06/19 13:31:31;;;;;;;;;;;;;;;;;;5040491;28;19921;-85
2021/06/19 13:34:00;;;;;;;;;;;;;;;;;;5091160;28;19924;-84
2021/06/19 13:36:37;;;;;;;;;;;;;;;;;;5066611;28;19937;-85
2021/06/19 13:39:06;;;;;;;;;;;;;;;;;;5076515;28;19931;-82
2021/06/19 13:41:37;;;;;;;;;;;;;;;;;;5054115;28;20301;-82
2021/06/19 13:44:05;;;;;;;;;;;;;;;;;;5073034;28;19932;-83
2021/06/19 13:46:34;;;;;;;;;;;;;;;;;;5075536;28;19931;-82
2021/06/19 13:49:02;;;;;;;;;;;;;;;;;;5088696;28;19935;-82
2021/06/19 13:51:32;;;;;;;;;;;;;;;;;;5070093;28;19931;-82
2021/06/19 13:54:01;;;;;;;;;;;;;;;;;;5085532;28;20313;-82
2021/06/19 13:56:29;;;;;;;;;;;;;;;;;;5063850;28;19943;-82
2021/06/19 13:58:58;;;;;;;;;;;;;;;;;;5071270;28;19924;-83
2021/06/19 14:01:27;;;;;;;;;;;;;;;;;;5073592;28;19924;-83
2021/06/19 14:03:55;;;;;;;;;;;;;;;;;;5068119;28;19932;-82
2021/06/19 14:06:24;;;;;;;;;;;;;;;;;;5069371;28;19928;-82
2021/06/19 14:08:54;;;;;;;;;;;;;;;;;;5044456;28;20869;-82
2021/06/19 14:11:23;;;;;;;;;;;;;;;;;;5054946;28;20301;-82
2021/06/19 14:13:51;;;;;;;;;;;;;;;;;;5070828;28;19931;-82
2021/06/19 14:16:20;;;;;;;;;;;;;;;;;;5065073;28;19928;-82
2021/06/19 14:18:48;;;;;;;;;;;;;;;;;;5073378;28;19924;-83
2021/06/19 14:21:18;;;;;;;;;;;;;;;;;;5049543;28;20313;-82
2021/06/19 14:23:46;;;;;;;;;;;;;;;;;;5072714;28;19940;-82
2021/06/19 14:26:17;;;;;;;;;;;;;;;;;;5073927;28;20325;-84
2021/06/19 14:28:46;;;;;;;;;;;;;;;;;;5092670;28;21300;-83
2021/06/19 14:31:14;;;;;;;;;;;;;;;;;;5091557;28;19924;-83
2021/06/19 14:33:43;;;;;;;;;;;;;;;;;;5067776;28;19955;-86
2021/06/19 14:36:12;;;;;;;;;;;;;;;;;;5081595;28;20414;-82
2021/06/19 14:38:40;;;;;;;;;;;;;;;;;;5049701;28;19932;-82
2021/06/19 14:41:09;;;;;;;;;;;;;;;;;;5048207;28;19929;-83
2021/06/19 14:43:39;;;;;;;;;;;;;;;;;;5058995;28;19928;-84
2021/06/19 14:46:08;;;;;;;;;;;;;;;;;;5049743;28;20271;-84
2021/06/19 14:48:36;;;;;;;;;;;;;;;;;;5055974;28;19931;-83
2021/06/19 14:51:05;;;;;;;;;;;;;;;;;;5062005;28;20305;-84
2021/06/19 14:53:35;;;;;;;;;;;;;;;;;;5051883;28;19924;-83
2021/06/19 14:56:08;;;;;;;;;;;;;;;;;;5049121;28;19925;-82
2021/06/19 14:58:37;;;;;;;;;;;;;;;;;;5051263;28;19987;-82
2021/06/19 15:01:06;;;;;;;;;;;;;;;;;;5054371;28;19991;-82
2021/06/19 15:03:35;;;;;;;;;;;;;;;;;;5074134;28;19932;-82
2021/06/19 15:06:03;;;;;;;;;;;;;;;;;;5074634;28;19924;-83
2021/06/19 15:08:32;;;;;;;;;;;;;;;;;;5050816;28;20232;-82
2021/06/19 15:11:00;;;;;;;;;;;;;;;;;;5079276;28;19928;-84
2021/06/19 15:13:29;;;;;;;;;;;;;;;;;;5048945;28;19948;-84
2021/06/19 15:15:58;;;;;;;;;;;;;;;;;;5082699;28;19924;-82
2021/06/19 15:18:28;;;;;;;;;;;;;;;;;;5064623;28;19924;-82
2021/06/19 15:20:56;;;;;;;;;;;;;;;;;;5049580;28;19939;-82
2021/06/19 15:23:25;;;;;;;;;;;;;;;;;;5060546;28;19931;-83
2021/06/19 15:25:53;;;;;;;;;;;;;;;;;;5084608;28;20091;-82
2021/06/19 15:28:21;;;;;;;;;;;;;;;;;;5069190;28;19928;-82
2021/06/19 15:30:50;;;;;;;;;;;;;;;;;;5068345;28;20274;-82
2021/06/19 15:33:18;;;;;;;;;;;;;;;;;;5065702;28;20931;-82
2021/06/19 15:35:48;;;;;;;;;;;;;;;;;;5055448;28;20490;-82
2021/06/19 15:38:17;;;;;;;;;;;;;;;;;;5075810;28;20308;-83
2021/06/19 15:40:45;;;;;;;;;;;;;;;;;;5055344;28;20446;-82
2021/06/19 15:43:13;;;;;;;;;;;;;;;;;;5057166;28;20273;-84
2021/06/19 15:45:42;;;;;;;;;;;;;;;;;;5053015;28;19937;-83
2021/06/19 15:48:11;;;;;;;;;;;;;;;;;;5043098;28;20462;-82
2021/06/19 15:50:40;;;;;;;;;;;;;;;;;;5049276;28;20338;-83
2021/06/19 15:53:09;;;;;;;;;;;;;;;;;;5054222;28;19924;-84
2021/06/19 15:55:38;;;;;;;;;;;;;;;;;;5087165;28;19939;-82
2021/06/19 15:58:06;;;;;;;;;;;;;;;;;;5056986;28;19928;-83
2021/06/19 16:00:35;;;;;;;;;;;;;;;;;;5088803;28;20301;-82
2021/06/19 16:03:04;;;;;;;;;;;;;;;;;;5072014;28;19932;-82
2021/06/19 16:05:32;;;;;;;;;;;;;;;;;;5054623;28;20022;-82
2021/06/19 16:08:04;;;;;;;;;;;;;;;;;;5085991;28;19930;-87
2021/06/19 16:10:46;;;;;;;;;;;;;;;;;;5061091;28;20290;-87
2021/06/19 16:13:25;;;;;;;;;;;;;;;;;;5055300;28;20337;-87
2021/06/19 16:16:02;;;;;;;;;;;;;;;;;;5058452;28;19924;-87
2021/06/19 16:18:41;;;;;;;;;;;;;;;;;;5052434;28;19931;-87
2021/06/19 16:21:19;;;;;;;;;;;;;;;;;;5058053;28;19928;-87
2021/06/19 16:23:53;;;;;;;;;;;;;;;;;;5072383;28;19936;-88
2021/06/19 16:26:24;;;;;;;;;;;;;;;;;;5082544;28;19924;-88
2021/06/19 16:28:53;;;;;;;;;;;;;;;;;;5088455;28;19922;-89
2021/06/19 16:31:23;;;;;;;;;;;;;;;;;;5071537;28;19935;-89
2021/06/19 16:33:52;;;;;;;;;;;;;;;;;;5070186;28;19924;-86
2021/06/19 16:36:21;;;;;;;;;;;;;;;;;;5058297;28;19991;-85
2021/06/19 16:38:50;;;;;;;;;;;;;;;;;;5059160;28;19932;-87
2021/06/19 16:41:19;;;;;;;;;;;;;;;;;;5052108;28;19932;-85
2021/06/19 16:43:48;;;;;;;;;;;;;;;;;;5051867;28;19924;-85
2021/06/19 16:46:17;;;;;;;;;;;;;;;;;;5053022;28;19933;-85
2021/06/19 16:48:46;;;;;;;;;;;;;;;;;;5055249;28;19928;-84
2021/06/19 16:51:14;;;;;;;;;;;;;;;;;;5052760;28;20123;-84
2021/06/19 16:53:43;;;;;;;;;;;;;;;;;;5072947;28;19924;-85
2021/06/19 16:56:13;;;;;;;;;;;;;;;;;;5050268;28;19936;-85
2021/06/19 16:58:41;;;;;;;;;;;;;;;;;;5051617;28;19924;-84
2021/06/19 17:01:11;;;;;;;;;;;;;;;;;;5057209;28;19931;-84
2021/06/19 17:03:39;;;;;;;;;;;;;;;;;;5058422;28;20408;-85
2021/06/19 17:06:11;;;;;;;;;;;;;;;;;;5059174;28;19931;-83
2021/06/19 17:08:40;;;;;;;;;;;;;;;;;;5056489;28;19925;-84
2021/06/19 17:11:08;;;;;;;;;;;;;;;;;;5056726;28;20321;-84
2021/06/19 17:13:37;;;;;;;;;;;;;;;;;;5056547;28;19940;-84
2021/06/19 17:16:06;;;;;;;;;;;;;;;;;;5046462;28;19932;-84
2021/06/19 17:18:36;;;;;;;;;;;;;;;;;;5072761;28;20287;-82
2021/06/19 17:21:05;;;;;;;;;;;;;;;;;;5076208;28;19932;-83
2021/06/19 17:23:33;;;;;;;;;;;;;;;;;;5085355;28;19908;-86
2021/06/19 17:26:01;;;;;;;;;;;;;;;;;;5111953;28;19924;-83
2021/06/19 17:28:30;;;;;;;;;;;;;;;;;;5059428;28;19928;-84
2021/06/19 17:30:59;;;;;;;;;;;;;;;;;;5055669;28;19924;-83
2021/06/19 17:33:27;;;;;;;;;;;;;;;;;;5049362;28;19925;-83
2021/06/19 17:35:57;;;;;;;;;;;;;;;;;;5071260;28;20732;-83
2021/06/19 17:38:25;;;;;;;;;;;;;;;;;;5066875;28;19912;-85
2021/06/19 17:40:55;;;;;;;;;;;;;;;;;;5088630;28;20112;-85